Time;durP1;ratioP1;P1;durP2;ratioP2;P2;SDS_P1;SDS_P2;PMS_P1;PMS_P2;Temp;Humidity;BMP_temperature;BMP_pressure;BME280_temperature;BME280_humidity;BME280_pressure;Samples;Min_cycle;Max_cycle;Signal;HPM_P1;HPM_P2
2023/09/28 00:01:38;;;;;;;6.90;3.97;;;20.90;96.70;;;;;;5011152;28;20111;-78
2023/09/28 00:04:06;;;;;;;6.45;4.10;;;21.00;96.70;;;;;;5012524;28;20049;-79
2023/09/28 00:06:35;;;;;;;5.80;4.05;;;20.90;96.70;;;;;;5026456;28;20164;-79
2023/09/28 00:09:04;;;;;;;5.03;4.13;;;20.80;96.70;;;;;;5010068;28;20045;-80
2023/09/28 00:11:32;;;;;;;6.10;3.90;;;20.80;96.70;;;;;;5005863;28;20069;-79
2023/09/28 00:14:01;;;;;;;6.38;4.35;;;20.80;96.70;;;;;;5009198;28;20060;-80
2023/09/28 00:16:31;;;;;;;8.52;3.90;;;20.70;96.70;;;;;;5010065;28;20041;-80
2023/09/28 00:18:59;;;;;;;6.28;4.03;;;20.60;96.70;;;;;;5010214;28;20038;-80
2023/09/28 00:21:28;;;;;;;9.32;4.20;;;20.40;96.70;;;;;;5009043;28;20041;-78
2023/09/28 00:23:57;;;;;;;9.13;4.45;;;20.40;96.70;;;;;;5024956;28;20504;-80
2023/09/28 00:26:26;;;;;;;5.93;4.38;;;20.40;96.70;;;;;;5009267;28;20099;-80
2023/09/28 00:28:55;;;;;;;8.88;4.80;;;20.40;96.70;;;;;;5008978;28;20069;-80
2023/09/28 00:31:25;;;;;;;5.85;4.60;;;20.50;96.70;;;;;;5010216;28;20100;-79
2023/09/28 00:33:53;;;;;;;6.82;5.00;;;20.50;96.70;;;;;;5012780;28;20042;-80
2023/09/28 00:36:22;;;;;;;6.90;4.70;;;20.50;96.70;;;;;;5008620;28;20488;-81
2023/09/28 00:38:50;;;;;;;9.52;4.75;;;20.40;96.70;;;;;;5025864;28;20048;-81
2023/09/28 00:41:19;;;;;;;8.43;5.20;;;20.30;96.70;;;;;;5009637;28;20526;-81
2023/09/28 00:43:47;;;;;;;8.85;5.47;;;20.30;96.70;;;;;;5008912;28;20046;-80
2023/09/28 00:46:16;;;;;;;9.70;5.05;;;20.30;96.70;;;;;;5008063;28;20104;-81
2023/09/28 00:48:58;;;;;;;7.65;4.78;;;20.30;96.70;;;;;;4991025;28;20348;-81
2023/09/28 00:51:27;;;;;;;9.57;4.40;;;20.30;96.70;;;;;;5009856;28;20053;-79
2023/09/28 00:53:59;;;;;;;8.25;5.03;;;20.20;96.70;;;;;;5007025;28;20045;-80
2023/09/28 00:56:28;;;;;;;7.13;4.32;;;20.30;96.70;;;;;;5008524;28;20076;-81
2023/09/28 00:58:56;;;;;;;8.90;4.38;;;20.30;96.70;;;;;;5007849;28;20569;-80
2023/09/28 01:01:28;;;;;;;7.38;4.18;;;20.30;96.70;;;;;;5009762;28;20512;-81
2023/09/28 01:04:04;;;;;;;9.38;3.78;;;20.20;96.70;;;;;;5009942;28;20045;-79
2023/09/28 01:06:35;;;;;;;9.20;4.40;;;20.20;96.70;;;;;;5018433;28;20060;-81
2023/09/28 01:09:09;;;;;;;8.00;4.50;;;20.20;96.70;;;;;;5014075;28;20180;-80
2023/09/28 01:11:39;;;;;;;6.47;3.97;;;20.20;96.70;;;;;;5013498;28;20128;-80
2023/09/28 01:14:08;;;;;;;8.20;4.10;;;20.20;96.70;;;;;;4997980;28;20560;-80
2023/09/28 01:16:39;;;;;;;6.18;4.05;;;20.10;96.70;;;;;;5014592;28;20141;-80
2023/09/28 01:19:09;;;;;;;8.15;4.47;;;20.20;96.70;;;;;;5014618;28;20450;-79
2023/09/28 01:21:37;;;;;;;5.35;4.13;;;20.10;96.70;;;;;;5016256;28;20065;-80
2023/09/28 01:24:07;;;;;;;9.18;4.93;;;20.10;96.70;;;;;;5012797;28;20044;-77
2023/09/28 01:26:35;;;;;;;8.60;4.00;;;20.00;96.70;;;;;;5012016;28;20170;-79
2023/09/28 01:29:05;;;;;;;6.90;4.40;;;20.00;96.70;;;;;;5028508;28;20037;-79
2023/09/28 01:31:33;;;;;;;6.15;4.28;;;19.90;96.70;;;;;;5012584;28;20077;-80
2023/09/28 01:34:01;;;;;;;5.63;4.25;;;20.00;96.70;;;;;;5013740;28;20060;-78
2023/09/28 01:36:30;;;;;;;5.82;4.00;;;19.90;96.70;;;;;;5015973;28;20046;-80
2023/09/28 01:39:03;;;;;;;9.90;4.28;;;20.00;96.70;;;;;;4996717;28;20065;-78
2023/09/28 01:41:32;;;;;;;5.88;4.32;;;20.00;96.70;;;;;;4995178;28;20737;-80
2023/09/28 01:44:00;;;;;;;7.70;3.70;;;20.00;96.70;;;;;;5015791;28;20088;-79
2023/09/28 01:46:29;;;;;;;7.32;4.65;;;19.90;96.70;;;;;;5013823;28;20053;-80
2023/09/28 01:48:59;;;;;;;5.15;3.78;;;19.90;96.70;;;;;;4998126;28;20045;-79
2023/09/28 01:51:27;;;;;;;5.38;3.80;;;19.90;96.70;;;;;;5015254;28;20065;-80
2023/09/28 01:53:56;;;;;;;6.28;3.88;;;19.90;96.70;;;;;;4997027;28;20578;-81
2023/09/28 01:56:24;;;;;;;7.45;3.78;;;19.90;96.70;;;;;;5014223;28;20069;-81
2023/09/28 01:58:54;;;;;;;7.22;3.97;;;19.80;96.70;;;;;;5013161;28;20115;-79
2023/09/28 02:01:23;;;;;;;6.75;4.13;;;19.90;96.70;;;;;;5015175;28;20060;-78
2023/09/28 02:03:51;;;;;;;7.65;3.80;;;19.90;96.70;;;;;;5014876;28;20053;-79
2023/09/28 02:06:20;;;;;;;6.25;3.90;;;19.70;96.70;;;;;;4997947;28;20155;-79
2023/09/28 02:08:48;;;;;;;6.93;4.25;;;19.70;96.70;;;;;;5014746;28;20162;-78
2023/09/28 02:11:16;;;;;;;9.07;4.10;;;19.70;96.70;;;;;;4998531;28;20525;-80
2023/09/28 02:13:44;;;;;;;4.38;3.63;;;19.60;96.70;;;;;;5013419;28;20049;-79
2023/09/28 02:16:14;;;;;;;7.35;4.10;;;19.50;96.70;;;;;;5014594;28;20084;-80
2023/09/28 02:18:42;;;;;;;5.60;3.83;;;19.50;96.70;;;;;;5012492;28;20041;-79
2023/09/28 02:21:14;;;;;;;7.90;3.70;;;19.50;96.70;;;;;;5019640;28;20041;-80
2023/09/28 02:23:42;;;;;;;6.22;3.58;;;19.50;96.70;;;;;;5009517;28;20065;-80
2023/09/28 02:26:10;;;;;;;4.75;3.40;;;19.50;96.70;;;;;;5010709;28;20554;-78
2023/09/28 02:28:39;;;;;;;5.32;3.72;;;19.40;96.70;;;;;;5011951;28;20396;-80
2023/09/28 02:31:07;;;;;;;4.97;3.70;;;19.30;96.70;;;;;;5011014;28;20042;-80
2023/09/28 02:33:37;;;;;;;7.07;3.90;;;19.30;96.70;;;;;;5010961;28;20041;-79
2023/09/28 02:36:05;;;;;;;7.22;3.78;;;19.30;96.70;;;;;;5011193;28;20557;-80
2023/09/28 02:38:35;;;;;;;7.28;3.90;;;19.30;96.70;;;;;;5028051;28;20050;-78
2023/09/28 02:41:04;;;;;;;5.38;4.00;;;19.30;96.70;;;;;;5019022;28;20052;-79
2023/09/28 02:43:33;;;;;;;8.38;4.32;;;19.10;96.70;;;;;;5010636;28;20875;-78
2023/09/28 02:46:02;;;;;;;12.35;3.95;;;19.10;96.70;;;;;;5035470;28;20136;-79
2023/09/28 02:48:31;;;;;;;4.00;3.63;;;19.10;96.70;;;;;;5011635;28;20052;-80
2023/09/28 02:51:03;;;;;;;9.02;4.13;;;19.10;96.70;;;;;;4993620;28;20475;-79
2023/09/28 02:53:32;;;;;;;8.07;4.15;;;19.10;96.70;;;;;;5010773;28;20053;-79
2023/09/28 02:56:00;;;;;;;5.70;3.95;;;19.10;96.70;;;;;;5009189;28;20478;-79
2023/09/28 02:58:28;;;;;;;8.60;4.15;;;19.10;96.70;;;;;;5010357;28;20049;-79
2023/09/28 03:00:57;;;;;;;6.60;4.13;;;19.00;96.70;;;;;;5011591;28;20046;-80
2023/09/28 03:03:25;;;;;;;9.18;3.78;;;19.00;96.70;;;;;;5008825;28;20034;-79
2023/09/28 03:05:56;;;;;;;6.97;4.47;;;19.00;96.70;;;;;;5011771;28;20112;-80
2023/09/28 03:08:26;;;;;;;9.35;4.85;;;18.90;96.70;;;;;;5010673;28;20140;-79
2023/09/28 03:10:54;;;;;;;8.45;4.78;;;19.10;96.70;;;;;;5011702;28;20038;-80
2023/09/28 03:13:22;;;;;;;5.72;3.85;;;19.10;96.70;;;;;;5010403;28;20030;-80
2023/09/28 03:15:51;;;;;;;6.80;4.07;;;19.00;96.70;;;;;;5017803;28;20045;-79
2023/09/28 03:18:19;;;;;;;5.78;4.68;;;19.00;96.70;;;;;;5009261;28;20456;-80
2023/09/28 03:20:49;;;;;;;7.95;4.50;;;19.00;96.70;;;;;;5009727;28;20049;-80
2023/09/28 03:23:17;;;;;;;9.00;4.18;;;19.00;96.70;;;;;;5008237;28;20034;-80
2023/09/28 03:25:48;;;;;;;6.45;3.97;;;18.90;96.70;;;;;;5010181;28;20049;-80
2023/09/28 03:28:16;;;;;;;6.40;4.55;;;18.90;96.70;;;;;;5010478;28;20046;-79
2023/09/28 03:30:44;;;;;;;4.63;4.10;;;18.80;96.70;;;;;;5008292;28;20041;-78
2023/09/28 03:33:12;;;;;;;7.78;4.38;;;18.70;96.70;;;;;;4991523;28;20145;-79
2023/09/28 03:35:40;;;;;;;7.13;4.90;;;18.70;96.70;;;;;;5009178;28;20120;-79
2023/09/28 03:38:08;;;;;;;8.63;4.43;;;18.70;96.70;;;;;;5009736;28;20041;-80
2023/09/28 03:40:37;;;;;;;10.32;4.82;;;18.60;96.70;;;;;;5026719;28;20054;-78
2023/09/28 03:43:06;;;;;;;7.10;3.85;;;18.60;96.70;;;;;;5007923;28;20530;-79
2023/09/28 03:45:34;;;;;;;5.57;4.22;;;18.80;96.70;;;;;;5011134;28;20041;-80
2023/09/28 03:48:02;;;;;;;9.27;4.78;;;18.80;96.70;;;;;;4994323;28;20037;-79
2023/09/28 03:50:30;;;;;;;7.05;5.03;;;18.70;96.70;;;;;;5008261;28;20053;-79
2023/09/28 03:52:59;;;;;;;6.10;4.20;;;18.70;96.70;;;;;;5008499;28;20038;-78
2023/09/28 03:55:27;;;;;;;8.43;4.82;;;18.70;96.70;;;;;;5008835;28;20423;-79
2023/09/28 03:58:02;;;;;;;5.97;4.60;;;18.60;96.70;;;;;;5008531;28;20046;-80
2023/09/28 04:00:32;;;;;;;7.53;4.65;;;18.70;96.70;;;;;;5005451;28;20103;-80
2023/09/28 04:03:00;;;;;;;10.23;4.35;;;18.70;96.70;;;;;;5007700;28;20046;-78
2023/09/28 04:05:28;;;;;;;5.00;3.95;;;18.70;96.70;;;;;;5007134;28;20539;-81
2023/09/28 04:07:56;;;;;;;7.18;4.25;;;18.70;96.70;;;;;;5004968;28;20042;-80
2023/09/28 04:10:24;;;;;;;5.57;4.05;;;18.80;96.70;;;;;;4986881;28;20088;-79
2023/09/28 04:12:52;;;;;;;6.88;4.85;;;18.60;96.70;;;;;;5008861;28;20048;-80
2023/09/28 04:15:22;;;;;;;7.43;4.78;;;18.50;96.70;;;;;;5006600;28;20157;-80
2023/09/28 04:17:52;;;;;;;6.97;4.47;;;18.40;96.70;;;;;;5010352;28;20056;-81
2023/09/28 04:20:20;;;;;;;6.82;4.50;;;18.40;96.70;;;;;;5010390;28;20042;-80
2023/09/28 04:22:48;;;;;;;5.93;4.93;;;18.40;96.70;;;;;;5008670;28;20416;-79
2023/09/28 04:25:19;;;;;;;9.18;4.75;;;18.40;96.70;;;;;;5009836;28;20042;-80
2023/09/28 04:27:49;;;;;;;6.55;4.53;;;18.40;96.70;;;;;;5009444;28;20046;-81
2023/09/28 04:30:18;;;;;;;4.90;4.40;;;18.40;96.70;;;;;;5017043;28;20582;-80
2023/09/28 04:32:51;;;;;;;8.13;4.30;;;18.40;96.70;;;;;;4993123;28;20103;-80
2023/09/28 04:35:20;;;;;;;5.82;3.90;;;18.50;96.70;;;;;;5010334;28;20148;-79
2023/09/28 04:37:48;;;;;;;7.85;4.18;;;18.60;96.70;;;;;;5009664;28;20598;-81
2023/09/28 04:40:23;;;;;;;6.68;3.90;;;18.50;96.70;;;;;;5007517;28;20054;-80
2023/09/28 04:42:53;;;;;;;4.97;4.15;;;18.40;96.70;;;;;;5008288;28;20048;-80
2023/09/28 04:45:22;;;;;;;6.78;4.00;;;18.40;96.70;;;;;;5034268;28;20041;-79
2023/09/28 04:47:53;;;;;;;6.45;4.47;;;18.40;96.70;;;;;;5009287;28;20045;-81
2023/09/28 04:50:21;;;;;;;7.47;4.28;;;18.40;96.70;;;;;;5010714;28;20122;-80
2023/09/28 04:52:49;;;;;;;11.40;4.60;;;18.30;96.70;;;;;;5008511;28;20050;-81
2023/09/28 04:55:17;;;;;;;5.35;4.05;;;18.30;96.70;;;;;;5006726;28;20081;-81
2023/09/28 04:57:45;;;;;;;5.53;4.15;;;18.30;96.70;;;;;;5007593;28;20041;-81
2023/09/28 05:00:16;;;;;;;6.32;4.63;;;18.20;96.70;;;;;;5008285;28;20136;-80
2023/09/28 05:02:45;;;;;;;8.90;4.50;;;18.20;96.70;;;;;;5008813;28;20123;-78
2023/09/28 05:05:15;;;;;;;8.45;4.45;;;18.30;96.70;;;;;;4993150;28;20798;-81
2023/09/28 05:07:43;;;;;;;5.10;4.28;;;18.30;96.70;;;;;;5009294;28;20129;-80
2023/09/28 05:10:11;;;;;;;12.52;4.95;;;18.20;96.70;;;;;;5009164;28;20060;-80
2023/09/28 05:12:39;;;;;;;8.05;4.32;;;18.10;96.70;;;;;;5009464;28;20100;-81
2023/09/28 05:15:09;;;;;;;8.32;4.13;;;18.10;96.70;;;;;;5009751;28;20087;-80
2023/09/28 05:17:37;;;;;;;7.35;4.43;;;18.20;96.70;;;;;;5009520;28;20132;-80
2023/09/28 05:20:08;;;;;;;7.22;4.22;;;18.30;96.70;;;;;;5006985;28;20069;-86
2023/09/28 05:22:38;;;;;;;8.02;4.32;;;18.20;96.70;;;;;;5007631;28;20046;-85
2023/09/28 05:25:07;;;;;;;7.97;4.30;;;18.20;96.70;;;;;;5007457;28;20136;-86
2023/09/28 05:27:35;;;;;;;8.50;4.18;;;18.20;96.70;;;;;;5012977;28;20136;-86
2023/09/28 05:30:04;;;;;;;8.23;4.60;;;18.20;96.70;;;;;;5018386;28;20072;-86
2023/09/28 05:32:35;;;;;;;8.82;4.50;;;18.20;96.70;;;;;;5009853;28;20045;-86
2023/09/28 05:35:06;;;;;;;8.55;4.43;;;18.30;96.70;;;;;;5007262;28;20419;-86
2023/09/28 05:37:34;;;;;;;4.95;4.05;;;18.30;96.70;;;;;;5009515;28;20053;-87
2023/09/28 05:40:04;;;;;;;11.77;5.05;;;18.60;96.70;;;;;;5013126;28;20042;-82
2023/09/28 05:42:35;;;;;;;6.88;4.43;;;18.70;96.70;;;;;;4997595;28;20060;-83
2023/09/28 05:45:04;;;;;;;9.55;5.82;;;18.60;96.70;;;;;;5007229;28;20073;-85
2023/09/28 05:47:34;;;;;;;8.98;5.03;;;18.60;96.70;;;;;;5010660;28;20046;-86
2023/09/28 05:50:04;;;;;;;7.63;4.60;;;18.50;96.70;;;;;;5011933;28;20054;-86
2023/09/28 05:52:33;;;;;;;10.25;4.72;;;18.60;96.70;;;;;;5006500;28;20101;-85
2023/09/28 05:55:01;;;;;;;7.03;5.05;;;18.70;96.70;;;;;;5026050;28;20050;-84
2023/09/28 05:57:30;;;;;;;9.63;5.05;;;18.60;96.70;;;;;;5010395;28;20125;-85
2023/09/28 05:59:58;;;;;;;11.55;4.72;;;18.70;96.70;;;;;;5011817;28;20396;-82
2023/09/28 06:02:26;;;;;;;8.85;5.15;;;18.70;96.70;;;;;;5003673;28;20042;-84
2023/09/28 06:04:54;;;;;;;7.97;5.13;;;18.80;96.70;;;;;;5010459;28;20073;-85
2023/09/28 06:07:24;;;;;;;13.70;6.10;;;18.90;96.70;;;;;;5010063;28;20069;-85
2023/09/28 06:09:52;;;;;;;9.65;5.07;;;18.90;96.70;;;;;;5010586;28;20054;-85
2023/09/28 06:12:21;;;;;;;12.25;5.40;;;18.90;96.70;;;;;;5011368;28;20075;-86
2023/09/28 06:14:50;;;;;;;12.63;5.70;;;19.00;96.70;;;;;;5010878;28;20050;-82
2023/09/28 06:17:18;;;;;;;12.65;5.75;;;19.20;96.70;;;;;;5009384;28;20042;-81
2023/09/28 06:19:46;;;;;;;11.75;5.22;;;19.30;96.70;;;;;;5007588;28;20529;-80
2023/09/28 06:22:21;;;;;;;12.90;6.35;;;19.30;96.70;;;;;;5007429;28;20148;-80
2023/09/28 06:24:49;;;;;;;13.63;6.05;;;19.30;96.70;;;;;;4990612;28;20653;-85
2023/09/28 06:27:18;;;;;;;13.10;5.82;;;19.40;96.70;;;;;;5009764;28;20100;-85
2023/09/28 06:29:52;;;;;;;11.57;6.05;;;19.40;96.70;;;;;;4994080;28;20092;-86
2023/09/28 06:32:23;;;;;;;14.35;6.40;;;19.60;96.70;;;;;;4994081;28;20536;-89
2023/09/28 06:34:51;;;;;;;10.70;6.75;;;19.70;96.70;;;;;;4993672;28;20042;-85
2023/09/28 06:37:19;;;;;;;14.52;6.75;;;19.80;96.70;;;;;;5009725;28;20041;-87
2023/09/28 06:39:47;;;;;;;13.98;7.10;;;19.80;96.70;;;;;;5009788;28;20046;-87
2023/09/28 06:42:22;;;;;;;13.10;7.53;;;19.90;96.70;;;;;;5001797;28;20073;-85
2023/09/28 06:45:04;;;;;;;11.65;6.68;;;20.00;96.70;;;;;;4990202;28;20057;-85
2023/09/28 06:47:34;;;;;;;14.68;7.68;;;20.00;96.70;;;;;;5008491;28;20538;-87
2023/09/28 06:50:22;;;;;;;21.70;8.23;;;20.20;96.70;;;;;;5003589;28;20050;-87
2023/09/28 06:52:51;;;;;;;15.32;8.00;;;20.10;96.70;;;;;;5011194;28;20041;-87
2023/09/28 06:55:23;;;;;;;18.67;7.57;;;20.10;96.70;;;;;;4990958;28;20055;-87
2023/09/28 06:57:52;;;;;;;14.63;7.32;;;20.20;96.70;;;;;;5008111;28;20050;-87
2023/09/28 07:00:20;;;;;;;14.80;7.13;;;20.30;96.70;;;;;;5042088;28;20096;-88
2023/09/28 07:02:50;;;;;;;14.90;7.40;;;20.50;96.70;;;;;;5009697;28;20046;-88
2023/09/28 07:05:18;;;;;;;16.00;6.40;;;20.60;96.70;;;;;;5009497;28;20038;-87
2023/09/28 07:07:46;;;;;;;12.55;6.25;;;20.60;96.70;;;;;;5010114;28;20435;-88
2023/09/28 07:10:14;;;;;;;10.90;6.30;;;20.60;96.70;;;;;;5009918;28;20044;-84
2023/09/28 07:12:43;;;;;;;13.43;5.90;;;20.70;96.70;;;;;;5010929;28;20042;-86
2023/09/28 07:15:11;;;;;;;13.52;5.75;;;20.80;96.70;;;;;;5025544;28;20042;-90
2023/09/28 07:17:39;;;;;;;11.23;5.93;;;20.80;96.70;;;;;;5010791;28;20053;-87
2023/09/28 07:20:11;;;;;;;8.52;5.38;;;20.80;96.70;;;;;;4989721;28;20145;-88
2023/09/28 07:22:39;;;;;;;12.48;5.70;;;20.80;96.70;;;;;;4993161;28;20061;-86
2023/09/28 07:25:09;;;;;;;8.70;5.07;;;20.80;96.70;;;;;;5009537;28;20037;-88
2023/09/28 07:27:37;;;;;;;11.25;5.03;;;20.90;96.70;;;;;;5010509;28;20053;-87
2023/09/28 07:30:06;;;;;;;9.77;4.97;;;21.00;96.70;;;;;;5009583;28;20073;-88
2023/09/28 07:32:35;;;;;;;10.98;5.70;;;21.10;96.70;;;;;;5010864;28;20053;-89
2023/09/28 07:35:03;;;;;;;8.77;4.55;;;21.20;96.70;;;;;;5009506;28;20395;-88
2023/09/28 07:37:33;;;;;;;11.13;4.82;;;21.40;96.70;;;;;;5009094;28;20057;-89
2023/09/28 07:40:04;;;;;;;7.82;4.40;;;21.50;96.70;;;;;;5010645;28;20096;-89
2023/09/28 07:42:32;;;;;;;9.32;4.28;;;21.60;96.70;;;;;;5008504;28;20042;-88
2023/09/28 07:45:00;;;;;;;10.35;4.60;;;21.70;96.70;;;;;;5009192;28;20534;-83
2023/09/28 07:47:28;;;;;;;12.05;4.95;;;21.70;96.70;;;;;;5009676;28;20129;-84
2023/09/28 07:49:58;;;;;;;13.57;4.88;;;21.80;96.70;;;;;;5008860;28;20042;-84
2023/09/28 07:52:26;;;;;;;12.13;5.03;;;21.90;96.70;;;;;;5010638;28;20045;-85
2023/09/28 07:54:56;;;;;;;15.70;6.13;;;22.00;96.70;;;;;;5008799;28;20495;-87
2023/09/28 07:57:24;;;;;;;11.10;5.90;;;22.00;96.70;;;;;;5009853;28;20045;-87
2023/09/28 07:59:58;;;;;;;12.00;4.65;;;22.00;96.70;;;;;;4995474;28;20111;-87
2023/09/28 08:02:27;;;;;;;10.20;4.28;;;22.00;96.70;;;;;;4994337;28;20132;-89
2023/09/28 08:04:55;;;;;;;11.50;4.35;;;22.10;96.70;;;;;;4992118;28;20060;-87
2023/09/28 08:07:24;;;;;;;7.10;3.88;;;22.20;96.70;;;;;;5008353;28;20049;-86
2023/09/28 08:09:52;;;;;;;8.13;4.70;;;22.20;96.70;;;;;;5009936;28;20103;-85
2023/09/28 08:12:22;;;;;;;8.98;4.40;;;22.20;96.70;;;;;;5009595;28;20140;-88
2023/09/28 08:14:50;;;;;;;7.00;4.13;;;22.30;96.70;;;;;;4992393;28;20053;-86
2023/09/28 08:17:19;;;;;;;9.00;4.32;;;22.30;96.70;;;;;;5007660;28;20053;-85
2023/09/28 08:19:50;;;;;;;12.65;4.60;;;22.30;96.70;;;;;;5009313;28;20099;-87
2023/09/28 08:22:18;;;;;;;8.68;4.60;;;22.30;96.70;;;;;;5008234;28;20508;-86
2023/09/28 08:24:47;;;;;;;10.77;4.57;;;22.40;96.70;;;;;;5010186;28;20049;-86
2023/09/28 08:27:15;;;;;;;9.65;4.70;;;22.40;96.70;;;;;;5008217;28;20105;-84
2023/09/28 08:29:44;;;;;;;11.75;4.90;;;22.40;96.70;;;;;;4992385;28;20080;-87
2023/09/28 08:32:12;;;;;;;10.32;4.40;;;22.40;96.70;;;;;;5008399;28;20073;-88
2023/09/28 08:34:40;;;;;;;7.88;4.25;;;22.50;96.70;;;;;;5007985;28;20087;-88
2023/09/28 08:37:08;;;;;;;11.18;5.15;;;22.50;96.70;;;;;;5007665;28;20042;-88
2023/09/28 08:39:39;;;;;;;10.30;4.70;;;22.60;96.70;;;;;;5007803;28;20053;-87
2023/09/28 08:42:15;;;;;;;12.00;5.25;;;22.80;96.70;;;;;;5007939;28;20057;-86
2023/09/28 08:44:46;;;;;;;14.57;5.13;;;22.90;96.70;;;;;;5007818;28;20053;-86
2023/09/28 08:47:20;;;;;;;11.65;5.82;;;23.00;96.70;;;;;;5007665;28;20052;-87
2023/09/28 08:49:50;;;;;;;9.55;4.97;;;23.10;96.70;;;;;;5007328;28;20049;-86
2023/09/28 08:52:19;;;;;;;9.77;5.43;;;23.10;96.70;;;;;;5007446;28;20046;-86
2023/09/28 08:54:48;;;;;;;10.85;4.47;;;23.20;96.70;;;;;;4987957;28;20824;-87
2023/09/28 08:57:16;;;;;;;12.45;4.63;;;23.20;96.70;;;;;;5023723;28;20496;-87
2023/09/28 08:59:48;;;;;;;6.82;4.13;;;23.20;96.70;;;;;;5007562;28;20435;-87
2023/09/28 09:02:16;;;;;;;11.00;4.53;;;23.40;96.70;;;;;;4988015;28;20512;-85
2023/09/28 09:04:45;;;;;;;13.25;7.47;;;23.60;96.70;;;;;;5005180;28;20041;-87
2023/09/28 09:07:14;;;;;;;17.33;7.65;;;23.90;96.70;;;;;;5009484;28;20045;-86
2023/09/28 09:09:45;;;;;;;19.35;8.23;;;24.00;96.70;;;;;;5007605;28;20046;-84
2023/09/28 09:12:14;;;;;;;16.73;8.15;;;24.10;96.70;;;;;;4991807;28;20054;-86
2023/09/28 09:14:43;;;;;;;19.48;8.80;;;24.20;96.70;;;;;;4991572;28;20397;-89
2023/09/28 09:17:12;;;;;;;17.38;9.82;;;24.10;96.70;;;;;;5008384;28;20050;-88
2023/09/28 09:19:42;;;;;;;24.70;12.70;;;24.10;96.70;;;;;;5007614;28;20056;-86
2023/09/28 09:22:25;;;;;;;22.98;13.70;;;24.20;96.70;;;;;;5008258;28;20085;-89
2023/09/28 09:24:53;;;;;;;20.02;12.02;;;24.20;96.70;;;;;;4991699;28;21479;-84
2023/09/28 09:27:27;;;;;;;15.25;9.48;;;24.30;96.70;;;;;;5007574;28;20069;-86
2023/09/28 09:29:57;;;;;;;16.15;7.80;;;24.40;96.70;;;;;;5011387;28;20045;-87
2023/09/28 09:32:28;;;;;;;14.75;7.90;;;24.60;96.70;;;;;;5011368;28;20104;-88
2023/09/28 09:34:56;;;;;;;14.48;7.00;;;24.80;96.70;;;;;;4995030;28;20140;-89
2023/09/28 09:37:24;;;;;;;10.55;5.78;;;25.00;96.70;;;;;;5011338;28;20109;-88
2023/09/28 09:39:52;;;;;;;10.32;6.35;;;25.10;96.70;;;;;;5004612;28;20046;-89
2023/09/28 09:42:27;;;;;;;11.85;6.20;;;25.20;96.70;;;;;;5012785;28;20046;-86
2023/09/28 09:44:55;;;;;;;9.50;5.55;;;25.50;96.70;;;;;;4995378;28;20141;-86
2023/09/28 09:47:25;;;;;;;13.15;5.70;;;25.50;96.70;;;;;;5011361;28;20504;-86
2023/09/28 09:49:55;;;;;;;13.38;5.53;;;25.40;96.70;;;;;;5011037;28;20113;-87
2023/09/28 09:52:26;;;;;;;11.15;5.82;;;25.40;96.70;;;;;;4986360;28;20057;-85
2023/09/28 09:54:55;;;;;;;11.48;5.57;;;25.40;96.70;;;;;;4994725;28;20132;-87
2023/09/28 09:57:24;;;;;;;9.45;5.25;;;25.60;96.70;;;;;;5011202;28;20058;-88
2023/09/28 09:59:53;;;;;;;8.43;5.63;;;25.80;96.70;;;;;;5013661;28;20050;-88
2023/09/28 10:02:28;;;;;;;7.20;4.72;;;25.80;96.70;;;;;;4994988;28;20054;-85
2023/09/28 10:05:00;;;;;;;10.20;5.35;;;25.90;96.70;;;;;;5004737;28;20571;-88
2023/09/28 10:07:32;;;;;;;10.05;4.95;;;25.80;96.70;;;;;;5010395;28;20381;-89
2023/09/28 10:10:14;;;;;;;8.50;4.95;;;25.90;96.70;;;;;;4996413;28;20057;-89
2023/09/28 10:12:42;;;;;;;10.07;5.57;;;26.10;96.70;;;;;;5026461;28;20261;-88
2023/09/28 10:15:13;;;;;;;7.80;5.13;;;26.20;96.70;;;;;;4994116;28;20073;-86
2023/09/28 10:17:42;;;;;;;7.78;4.63;;;26.30;96.70;;;;;;5012510;28;20470;-89
2023/09/28 10:20:14;;;;;;;13.05;4.93;;;26.40;96.70;;;;;;4991131;28;20062;-88
2023/09/28 10:22:44;;;;;;;10.20;5.10;;;26.30;96.70;;;;;;5009375;28;20053;-87
2023/09/28 10:25:12;;;;;;;11.02;5.07;;;26.20;96.70;;;;;;5011581;28;20108;-87
2023/09/28 10:27:43;;;;;;;12.48;4.95;;;26.20;96.70;;;;;;5010632;28;20112;-88
2023/09/28 10:30:18;;;;;;;9.30;4.93;;;26.30;96.70;;;;;;5010742;28;20057;-88
2023/09/28 10:32:50;;;;;;;13.47;5.67;;;26.40;96.70;;;;;;5043361;28;20057;-89
2023/09/28 10:35:28;;;;;;;10.30;5.97;;;26.60;96.70;;;;;;5011536;28;20064;-87
2023/09/28 10:38:19;;;;;;;13.27;5.78;;;26.60;96.70;;;;;;5010327;28;20077;-87
2023/09/28 10:41:05;;;;;;;10.52;5.85;;;26.70;96.70;;;;;;5009977;28;20038;-87
2023/09/28 10:43:38;;;;;;;10.82;6.38;;;26.80;96.70;;;;;;5009630;28;20056;-89
2023/09/28 10:46:07;;;;;;;11.20;6.15;;;27.00;96.70;;;;;;5012928;28;20054;-83
2023/09/28 10:48:39;;;;;;;10.82;5.65;;;27.10;96.70;;;;;;5009745;28;20562;-86
2023/09/28 10:51:15;;;;;;;9.35;5.63;;;27.20;96.70;;;;;;5006318;28;20462;-85
2023/09/28 10:53:44;;;;;;;11.07;5.47;;;27.40;96.70;;;;;;4991590;28;20493;-86
2023/09/28 10:56:12;;;;;;;9.35;4.82;;;27.50;96.70;;;;;;5013240;28;20046;-84
2023/09/28 10:58:41;;;;;;;9.35;5.20;;;27.80;96.70;;;;;;5010867;28;20499;-82
2023/09/28 11:01:11;;;;;;;7.10;4.90;;;27.70;96.70;;;;;;5008459;28;20057;-82
2023/09/28 11:03:39;;;;;;;10.98;4.95;;;27.70;96.70;;;;;;5007244;28;20125;-81
2023/09/28 11:06:09;;;;;;;9.80;4.85;;;27.80;96.70;;;;;;5011628;28;20463;-81
2023/09/28 11:08:39;;;;;;;11.00;4.93;;;27.80;96.70;;;;;;5011620;28;21976;-80
2023/09/28 11:11:08;;;;;;;10.15;4.95;;;27.80;96.70;;;;;;5004108;28;20053;-79
2023/09/28 11:13:37;;;;;;;8.13;4.65;;;27.60;96.70;;;;;;5007932;28;20092;-82
2023/09/28 11:16:06;;;;;;;12.45;4.82;;;27.50;96.70;;;;;;5006578;28;20042;-80
2023/09/28 11:18:34;;;;;;;9.38;4.55;;;27.50;96.70;;;;;;4989087;28;20062;-82
2023/09/28 11:21:03;;;;;;;10.23;4.57;;;27.50;96.70;;;;;;5006917;28;20065;-82
2023/09/28 11:23:31;;;;;;;5.93;4.45;;;27.40;96.70;;;;;;5005439;28;20099;-81
2023/09/28 11:26:01;;;;;;;7.97;4.05;;;27.40;96.70;;;;;;5007411;28;20727;-82
2023/09/28 11:28:29;;;;;;;8.57;4.63;;;27.40;96.70;;;;;;4989663;28;20053;-81
2023/09/28 11:31:08;;;;;;;5.97;4.25;;;27.50;96.70;;;;;;4990658;28;20499;-81
2023/09/28 11:33:37;;;;;;;5.85;3.85;;;27.50;96.70;;;;;;5011538;28;20046;-82
2023/09/28 11:36:06;;;;;;;6.63;4.03;;;27.60;96.70;;;;;;5017843;28;20459;-81
2023/09/28 11:38:34;;;;;;;8.40;3.88;;;28.10;96.70;;;;;;4989278;28;20076;-81
2023/09/28 11:41:04;;;;;;;8.70;4.15;;;28.50;96.70;;;;;;5006057;28;20523;-82
2023/09/28 11:43:34;;;;;;;6.85;3.88;;;28.80;96.70;;;;;;5007832;28;20042;-80
2023/09/28 11:46:03;;;;;;;5.78;3.70;;;28.90;96.70;;;;;;5007886;28;20088;-86
2023/09/28 11:48:31;;;;;;;8.63;3.90;;;28.90;96.70;;;;;;5005401;28;20439;-81
2023/09/28 11:50:59;;;;;;;5.78;3.72;;;29.10;96.70;;;;;;4986815;28;20046;-82
2023/09/28 11:53:27;;;;;;;8.82;4.25;;;29.30;96.70;;;;;;4996130;28;20530;-82
2023/09/28 11:55:56;;;;;;;7.13;3.65;;;29.50;96.70;;;;;;5005914;28;20056;-80
2023/09/28 11:58:27;;;;;;;8.18;4.25;;;29.60;96.70;;;;;;5008309;28;20046;-80
2023/09/28 12:00:55;;;;;;;5.25;3.38;;;29.80;96.70;;;;;;5006905;28;20052;-79
2023/09/28 12:03:23;;;;;;;6.25;3.35;;;29.90;96.70;;;;;;5005020;28;20053;-82
2023/09/28 12:05:52;;;;;;;8.23;3.50;;;29.70;96.70;;;;;;4987757;28;20046;-81
2023/09/28 12:08:21;;;;;;;6.97;3.28;;;30.00;96.70;;;;;;4987907;28;20529;-82
2023/09/28 12:10:49;;;;;;;7.65;3.35;;;30.30;96.70;;;;;;5005665;28;20038;-81
2023/09/28 12:13:17;;;;;;;7.18;3.80;;;30.40;96.70;;;;;;5008271;28;20092;-82
2023/09/28 12:15:47;;;;;;;7.70;3.83;;;30.50;96.70;;;;;;5004477;28;20068;-81
2023/09/28 12:18:14;;;;;;;5.47;3.50;;;30.60;96.70;;;;;;5008709;28;20537;-80
2023/09/28 12:20:43;;;;;;;5.07;3.22;;;30.60;96.70;;;;;;5010055;28;20117;-80
2023/09/28 12:23:11;;;;;;;4.05;3.20;;;30.50;96.70;;;;;;5008339;28;20547;-82
2023/09/28 12:25:40;;;;;;;4.15;3.10;;;30.30;96.70;;;;;;5009397;28;20507;-79
2023/09/28 12:28:08;;;;;;;4.28;3.35;;;30.30;96.70;;;;;;5030315;28;20044;-80
2023/09/28 12:30:37;;;;;;;4.80;2.88;;;30.30;96.70;;;;;;5004919;28;20054;-80
2023/09/28 12:33:08;;;;;;;6.68;3.08;;;30.40;96.70;;;;;;5010240;28;20517;-80
2023/09/28 12:35:38;;;;;;;6.50;3.25;;;30.40;96.70;;;;;;5004994;28;20076;-80
2023/09/28 12:38:07;;;;;;;5.18;2.97;;;30.50;96.70;;;;;;5006772;28;20084;-79
2023/09/28 12:40:36;;;;;;;6.18;3.20;;;30.50;96.70;;;;;;4985358;28;20043;-80
2023/09/28 12:43:05;;;;;;;7.18;3.20;;;30.40;96.70;;;;;;5009442;28;21042;-81
2023/09/28 12:45:34;;;;;;;7.35;2.75;;;30.40;96.70;;;;;;5008281;28;20108;-81
2023/09/28 12:48:03;;;;;;;4.45;3.00;;;30.30;96.70;;;;;;4994465;28;20407;-80
2023/09/28 12:50:35;;;;;;;4.03;3.17;;;30.20;96.70;;;;;;5003835;28;20161;-80
2023/09/28 12:53:04;;;;;;;4.78;2.95;;;29.90;96.70;;;;;;4988678;28;20150;-80
2023/09/28 12:55:33;;;;;;;6.32;3.55;;;29.90;96.70;;;;;;4988522;28;20484;-81